RYR1JG LIME-EGPH
Flight info
| Callsign | RYR1JG |
|---|---|
| Flight time | N/A |
| Altitude | 38000 |
| Route | SRN1VXARLES1B/28 ARLES DCT PUNSA DCT IBODI DCT GOTED DCT TRO DCT CLM DCT KOPOR DCT VESAN DCT RATUK DCT SOVAT L613 LEHOC DCT INPIP |
| Aircraft | B738/M-SDE3FGILRWY/SB1 |
Departure
| Time | N/A |
|---|---|
| Airport | Il Caravaggio International Airport (LIME) |
Arrival
| Time | 2026-05-05 21:30 |
|---|---|
| Airport | Edinburgh Airport (EGPH) |
| Time | Latitude | Longitude | Altitude | Speed | Heading |
|---|---|---|---|---|---|
| 2026-05-05 19:57 | 47.48123 | 5.49138 | 37867 ft | 458 kts | 329° |
| 2026-05-05 19:57 | 47.53273 | 5.43764 | 37861 ft | 451 kts | 313° |
| 2026-05-05 19:58 | 47.57380 | 5.36788 | 37862 ft | 449 kts | 307° |
| 2026-05-05 19:58 | 47.61301 | 5.29808 | 37851 ft | 449 kts | 307° |
| 2026-05-05 19:59 | 47.65297 | 5.22680 | 37855 ft | 449 kts | 307° |
| 2026-05-05 19:59 | 47.69289 | 5.15550 | 37855 ft | 449 kts | 307° |
| 2026-05-05 20:00 | 47.73271 | 5.08424 | 37848 ft | 450 kts | 307° |
| 2026-05-05 20:00 | 47.77263 | 5.01265 | 37859 ft | 450 kts | 307° |
| 2026-05-05 20:01 | 47.81251 | 4.94091 | 37852 ft | 450 kts | 307° |
| 2026-05-05 20:01 | 47.85237 | 4.86903 | 37853 ft | 450 kts | 307° |
| 2026-05-05 20:02 | 47.89204 | 4.79730 | 37845 ft | 450 kts | 307° |
| 2026-05-05 20:02 | 47.93612 | 4.73098 | 37847 ft | 454 kts | 322° |
| 2026-05-05 20:03 | 47.98815 | 4.67718 | 37836 ft | 455 kts | 323° |
| 2026-05-05 20:03 | 48.04038 | 4.62377 | 37837 ft | 455 kts | 323° |
| 2026-05-05 20:04 | 48.09241 | 4.56967 | 37829 ft | 455 kts | 323° |
| 2026-05-05 20:04 | 48.14416 | 4.51522 | 37831 ft | 455 kts | 323° |
| 2026-05-05 20:05 | 48.19591 | 4.46050 | 37825 ft | 455 kts | 322° |
| 2026-05-05 20:05 | 48.24760 | 4.40568 | 37825 ft | 455 kts | 322° |
| 2026-05-05 20:06 | 48.29932 | 4.35073 | 37827 ft | 455 kts | 322° |
| 2026-05-05 20:06 | 48.35096 | 4.29572 | 37819 ft | 455 kts | 322° |
| 2026-05-05 20:07 | 48.40262 | 4.24056 | 37816 ft | 455 kts | 323° |
| 2026-05-05 20:07 | 48.45429 | 4.18525 | 37814 ft | 456 kts | 323° |
| 2026-05-05 20:08 | 48.50592 | 4.12984 | 37812 ft | 456 kts | 322° |
| 2026-05-05 20:08 | 48.55750 | 4.07435 | 37821 ft | 455 kts | 322° |
| 2026-05-05 20:09 | 48.60905 | 4.01873 | 37826 ft | 455 kts | 323° |
| 2026-05-05 20:09 | 48.66060 | 3.96298 | 37820 ft | 455 kts | 323° |
| 2026-05-05 20:10 | 48.71207 | 3.90718 | 37821 ft | 455 kts | 323° |
| 2026-05-05 20:10 | 48.76337 | 3.85141 | 37817 ft | 455 kts | 323° |
| 2026-05-05 20:11 | 48.81463 | 3.79555 | 37812 ft | 455 kts | 323° |
| 2026-05-05 20:11 | 48.86598 | 3.73943 | 37804 ft | 455 kts | 322° |
| 2026-05-05 20:12 | 48.91730 | 3.68321 | 37802 ft | 455 kts | 322° |
| 2026-05-05 20:12 | 48.96857 | 3.62690 | 37808 ft | 454 kts | 322° |
| 2026-05-05 20:13 | 49.01980 | 3.57049 | 37810 ft | 454 kts | 322° |
| 2026-05-05 20:13 | 49.07089 | 3.51408 | 37820 ft | 454 kts | 323° |
| 2026-05-05 20:14 | 49.12195 | 3.45756 | 37814 ft | 455 kts | 323° |
| 2026-05-05 20:14 | 49.17313 | 3.40076 | 37815 ft | 455 kts | 322° |
| 2026-05-05 20:15 | 49.22396 | 3.34420 | 37820 ft | 455 kts | 322° |
| 2026-05-05 20:15 | 49.27502 | 3.28725 | 37817 ft | 455 kts | 322° |
| 2026-05-05 20:16 | 49.32620 | 3.23000 | 37824 ft | 455 kts | 322° |
| 2026-05-05 20:16 | 49.37734 | 3.17265 | 37824 ft | 456 kts | 322° |
| 2026-05-05 20:17 | 49.42850 | 3.11512 | 37836 ft | 456 kts | 322° |
| 2026-05-05 20:17 | 49.47958 | 3.05753 | 37828 ft | 456 kts | 322° |
| 2026-05-05 20:18 | 49.53077 | 2.99966 | 37835 ft | 456 kts | 322° |
| 2026-05-05 20:18 | 49.58189 | 2.94173 | 37840 ft | 456 kts | 322° |
| 2026-05-05 20:19 | 49.63294 | 2.88371 | 37837 ft | 456 kts | 322° |
| 2026-05-05 20:19 | 49.68401 | 2.82552 | 37847 ft | 456 kts | 322° |
| 2026-05-05 20:20 | 49.73497 | 2.76730 | 37842 ft | 455 kts | 322° |
| 2026-05-05 20:20 | 49.78585 | 2.70901 | 37866 ft | 455 kts | 322° |
| 2026-05-05 20:21 | 49.83670 | 2.65060 | 37857 ft | 455 kts | 322° |
| 2026-05-05 20:21 | 49.88748 | 2.59211 | 37862 ft | 455 kts | 322° |
| 2026-05-05 20:22 | 49.93824 | 2.53350 | 37862 ft | 455 kts | 322° |
| 2026-05-05 20:22 | 49.98891 | 2.47482 | 37862 ft | 454 kts | 322° |
| 2026-05-05 20:23 | 50.03957 | 2.41600 | 37866 ft | 454 kts | 322° |
| 2026-05-05 20:23 | 50.09022 | 2.35703 | 37872 ft | 455 kts | 321° |
| 2026-05-05 20:24 | 50.14082 | 2.29796 | 37882 ft | 455 kts | 322° |
| 2026-05-05 20:24 | 50.19132 | 2.23885 | 37893 ft | 455 kts | 322° |
| 2026-05-05 20:25 | 50.24186 | 2.17953 | 37884 ft | 455 kts | 321° |
| 2026-05-05 20:25 | 50.29236 | 2.12008 | 37897 ft | 454 kts | 321° |
| 2026-05-05 20:26 | 50.34269 | 2.06071 | 37897 ft | 453 kts | 321° |
| 2026-05-05 20:26 | 50.39239 | 2.00009 | 37900 ft | 452 kts | 318° |
| 2026-05-05 20:27 | 50.43939 | 1.93582 | 37905 ft | 451 kts | 316° |
| 2026-05-05 20:27 | 50.48628 | 1.87071 | 37912 ft | 451 kts | 317° |
| 2026-05-05 20:28 | 50.53341 | 1.80591 | 37923 ft | 450 kts | 317° |
| 2026-05-05 20:28 | 50.58038 | 1.74149 | 37904 ft | 449 kts | 316° |
| 2026-05-05 20:29 | 50.62730 | 1.67698 | 37915 ft | 448 kts | 317° |
| 2026-05-05 20:29 | 50.67409 | 1.61245 | 37914 ft | 447 kts | 316° |
| 2026-05-05 20:30 | 50.72077 | 1.54787 | 37920 ft | 446 kts | 316° |
| 2026-05-05 20:30 | 50.76734 | 1.48326 | 37926 ft | 445 kts | 317° |
| 2026-05-05 20:31 | 50.81385 | 1.41860 | 37930 ft | 445 kts | 316° |
| 2026-05-05 20:31 | 50.86038 | 1.35382 | 37934 ft | 446 kts | 316° |
| 2026-05-05 20:32 | 50.90692 | 1.28880 | 37961 ft | 447 kts | 317° |
| 2026-05-05 20:32 | 50.95350 | 1.22356 | 37956 ft | 448 kts | 316° |
| 2026-05-05 20:33 | 51.00025 | 1.15788 | 37966 ft | 449 kts | 316° |
| 2026-05-05 20:33 | 51.04706 | 1.09196 | 37962 ft | 451 kts | 317° |
| 2026-05-05 20:34 | 51.09588 | 1.02978 | 37969 ft | 452 kts | 323° |
| 2026-05-05 20:34 | 51.14789 | 0.97324 | 37957 ft | 453 kts | 324° |
| 2026-05-05 20:35 | 51.19943 | 0.91762 | 37996 ft | 453 kts | 324° |
| 2026-05-05 20:35 | 51.25123 | 0.86061 | 37995 ft | 452 kts | 324° |
| 2026-05-05 20:36 | 51.30257 | 0.80341 | 38003 ft | 450 kts | 323° |
| 2026-05-05 20:36 | 51.35358 | 0.74631 | 37957 ft | 448 kts | 323° |
| 2026-05-05 20:37 | 51.40449 | 0.68918 | 37963 ft | 446 kts | 323° |
| 2026-05-05 20:37 | 51.44695 | 0.64143 | 37963 ft | 445 kts | 323° |
| 2026-05-05 20:38 | 51.49752 | 0.58442 | 37962 ft | 443 kts | 323° |
| 2026-05-05 20:38 | 51.54787 | 0.52750 | 37967 ft | 442 kts | 323° |
| 2026-05-05 20:39 | 51.59807 | 0.47060 | 37978 ft | 442 kts | 323° |
| 2026-05-05 20:39 | 51.64799 | 0.41385 | 37964 ft | 443 kts | 323° |
| 2026-05-05 20:40 | 51.69829 | 0.35652 | 37978 ft | 443 kts | 323° |
| 2026-05-05 20:40 | 51.74855 | 0.29908 | 37990 ft | 443 kts | 323° |
| 2026-05-05 20:41 | 51.79884 | 0.24143 | 37997 ft | 444 kts | 322° |
| 2026-05-05 20:41 | 51.84913 | 0.18363 | 38000 ft | 444 kts | 322° |
| 2026-05-05 20:42 | 51.89944 | 0.12564 | 37993 ft | 444 kts | 322° |
| 2026-05-05 20:42 | 51.94974 | 0.06749 | 37991 ft | 444 kts | 322° |
| 2026-05-05 20:43 | 51.99990 | 0.00936 | 37985 ft | 444 kts | 322° |
| 2026-05-05 20:43 | 52.05142 | -0.04572 | 37977 ft | 445 kts | 329° |
| 2026-05-05 20:44 | 52.10618 | -0.09267 | 37964 ft | 445 kts | 330° |
| 2026-05-05 20:44 | 52.16090 | -0.13933 | 37979 ft | 444 kts | 330° |
| 2026-05-05 20:45 | 52.24229 | -0.21082 | 37982 ft | 442 kts | 329° |
| 2026-05-05 20:45 | 52.29638 | -0.25868 | 37999 ft | 442 kts | 329° |
| 2026-05-05 20:46 | 52.35036 | -0.30650 | 37993 ft | 441 kts | 329° |
| 2026-05-05 20:46 | 52.40433 | -0.35443 | 38009 ft | 441 kts | 329° |
| 2026-05-05 20:47 | 52.45789 | -0.40213 | 38014 ft | 441 kts | 329° |
| 2026-05-05 20:47 | 52.51172 | -0.45022 | 38023 ft | 441 kts | 329° |
| 2026-05-05 20:48 | 52.56557 | -0.49846 | 38019 ft | 441 kts | 329° |
| 2026-05-05 20:48 | 52.61945 | -0.54687 | 38023 ft | 441 kts | 329° |
| 2026-05-05 20:49 | 52.67299 | -0.59511 | 38021 ft | 442 kts | 329° |
| 2026-05-05 20:49 | 52.72724 | -0.64412 | 38026 ft | 442 kts | 329° |
| 2026-05-05 20:50 | 52.78082 | -0.69266 | 38027 ft | 442 kts | 329° |
| 2026-05-05 20:50 | 52.83475 | -0.74167 | 38021 ft | 443 kts | 329° |
| 2026-05-05 20:51 | 52.88851 | -0.79066 | 38023 ft | 443 kts | 329° |
| 2026-05-05 20:51 | 52.94240 | -0.83992 | 38023 ft | 443 kts | 329° |
| 2026-05-05 20:52 | 52.99620 | -0.88921 | 38025 ft | 442 kts | 329° |
| 2026-05-05 20:52 | 53.04998 | -0.93859 | 38039 ft | 442 kts | 329° |
| 2026-05-05 20:53 | 53.10372 | -0.98799 | 38038 ft | 442 kts | 329° |
| 2026-05-05 20:53 | 53.15744 | -1.03755 | 38051 ft | 441 kts | 329° |
| 2026-05-05 20:54 | 53.21111 | -1.08719 | 38046 ft | 441 kts | 329° |
| 2026-05-05 20:54 | 53.26455 | -1.13678 | 38061 ft | 439 kts | 328° |
| 2026-05-05 20:55 | 53.31792 | -1.18645 | 38043 ft | 439 kts | 328° |
| 2026-05-05 20:55 | 53.37117 | -1.23614 | 38053 ft | 437 kts | 328° |
| 2026-05-05 20:56 | 53.42423 | -1.28580 | 38050 ft | 436 kts | 328° |
| 2026-05-05 20:56 | 53.47705 | -1.33557 | 38054 ft | 435 kts | 328° |
| 2026-05-05 20:57 | 53.52976 | -1.38546 | 38051 ft | 434 kts | 328° |
| 2026-05-05 20:57 | 53.58239 | -1.43540 | 38061 ft | 434 kts | 328° |
| 2026-05-05 20:58 | 53.63458 | -1.48505 | 38063 ft | 434 kts | 328° |
| 2026-05-05 20:58 | 53.68752 | -1.53555 | 38056 ft | 434 kts | 328° |
| 2026-05-05 20:59 | 53.73915 | -1.58707 | 38059 ft | 433 kts | 321° |
| 2026-05-05 20:59 | 53.78413 | -1.65386 | 38050 ft | 431 kts | 315° |
| 2026-05-05 21:00 | 53.82807 | -1.72296 | 38050 ft | 431 kts | 315° |
| 2026-05-05 21:00 | 53.87235 | -1.79177 | 38076 ft | 432 kts | 315° |
| 2026-05-05 21:01 | 53.91667 | -1.86023 | 38081 ft | 433 kts | 315° |
| 2026-05-05 21:01 | 53.96132 | -1.92932 | 38083 ft | 433 kts | 315° |
| 2026-05-05 21:02 | 54.00585 | -1.99846 | 38088 ft | 434 kts | 315° |
| 2026-05-05 21:02 | 54.05546 | -2.05782 | 38094 ft | 438 kts | 327° |
| 2026-05-05 21:03 | 54.10833 | -2.10965 | 38086 ft | 439 kts | 327° |
| 2026-05-05 21:03 | 54.16130 | -2.16177 | 37766 ft | 443 kts | 327° |
| 2026-05-05 21:04 | 54.18789 | -2.18828 | 37424 ft | 439 kts | 327° |
| 2026-05-05 21:04 | 54.21409 | -2.21456 | 36964 ft | 435 kts | 327° |
| 2026-05-05 21:04 | 54.24000 | -2.24065 | 36606 ft | 429 kts | 326° |
| 2026-05-05 21:04 | 54.26559 | -2.26650 | 36203 ft | 425 kts | 326° |
| 2026-05-05 21:05 | 54.29095 | -2.29217 | 35813 ft | 421 kts | 326° |
| 2026-05-05 21:05 | 54.31604 | -2.31762 | 35413 ft | 418 kts | 326° |
| 2026-05-05 21:05 | 54.34093 | -2.34289 | 35032 ft | 414 kts | 326° |
| 2026-05-05 21:05 | 54.36560 | -2.36798 | 34635 ft | 411 kts | 326° |
| 2026-05-05 21:06 | 54.39010 | -2.39292 | 34254 ft | 408 kts | 326° |
| 2026-05-05 21:06 | 54.41427 | -2.41756 | 33829 ft | 405 kts | 326° |
| 2026-05-05 21:06 | 54.43842 | -2.44222 | 33402 ft | 402 kts | 326° |
| 2026-05-05 21:06 | 54.46233 | -2.46665 | 32998 ft | 398 kts | 326° |
| 2026-05-05 21:07 | 54.48602 | -2.49090 | 32631 ft | 395 kts | 326° |
| 2026-05-05 21:07 | 54.50950 | -2.51496 | 32246 ft | 391 kts | 326° |
| 2026-05-05 21:07 | 54.53270 | -2.53878 | 31877 ft | 388 kts | 326° |
| 2026-05-05 21:07 | 54.55579 | -2.56250 | 31511 ft | 385 kts | 326° |
| 2026-05-05 21:08 | 54.57866 | -2.58604 | 31143 ft | 382 kts | 326° |
| 2026-05-05 21:08 | 54.60120 | -2.60927 | 30781 ft | 379 kts | 326° |
| 2026-05-05 21:08 | 54.62375 | -2.63254 | 30429 ft | 376 kts | 326° |
| 2026-05-05 21:08 | 54.64615 | -2.65568 | 30058 ft | 374 kts | 326° |
| 2026-05-05 21:09 | 54.66838 | -2.67867 | 29642 ft | 371 kts | 326° |
| 2026-05-05 21:09 | 54.69039 | -2.70147 | 29270 ft | 367 kts | 326° |
| 2026-05-05 21:09 | 54.71215 | -2.72404 | 28890 ft | 363 kts | 326° |
| 2026-05-05 21:09 | 54.73368 | -2.74638 | 28550 ft | 359 kts | 326° |
| 2026-05-05 21:10 | 54.75500 | -2.76856 | 28161 ft | 356 kts | 326° |
| 2026-05-05 21:10 | 54.77617 | -2.79060 | 27787 ft | 353 kts | 326° |
| 2026-05-05 21:10 | 54.79711 | -2.81244 | 27430 ft | 350 kts | 326° |
| 2026-05-05 21:10 | 54.81790 | -2.83414 | 27060 ft | 347 kts | 326° |
| 2026-05-05 21:11 | 54.83825 | -2.85540 | 26719 ft | 345 kts | 326° |
| 2026-05-05 21:11 | 54.85871 | -2.87680 | 26364 ft | 342 kts | 326° |
| 2026-05-05 21:11 | 54.87917 | -2.89773 | 25997 ft | 341 kts | 329° |
| 2026-05-05 21:11 | 54.90087 | -2.91517 | 25523 ft | 346 kts | 334° |
| 2026-05-05 21:12 | 54.92323 | -2.93111 | 25048 ft | 348 kts | 335° |
| 2026-05-05 21:12 | 54.94576 | -2.94685 | 24570 ft | 350 kts | 335° |
| 2026-05-05 21:12 | 54.96838 | -2.96277 | 24095 ft | 351 kts | 335° |
| 2026-05-05 21:12 | 54.99104 | -2.97893 | 23591 ft | 354 kts | 335° |
| 2026-05-05 21:13 | 55.01382 | -2.99535 | 23015 ft | 355 kts | 334° |
| 2026-05-05 21:13 | 55.03661 | -3.01188 | 22496 ft | 354 kts | 334° |
| 2026-05-05 21:13 | 55.05930 | -3.02841 | 22006 ft | 353 kts | 334° |
| 2026-05-05 21:13 | 55.08196 | -3.04496 | 21512 ft | 352 kts | 334° |
| 2026-05-05 21:14 | 55.10454 | -3.06147 | 21018 ft | 352 kts | 334° |
| 2026-05-05 21:14 | 55.12706 | -3.07796 | 20533 ft | 351 kts | 334° |
| 2026-05-05 21:14 | 55.14938 | -3.09432 | 20053 ft | 350 kts | 334° |
| 2026-05-05 21:14 | 55.17180 | -3.11075 | 19598 ft | 348 kts | 334° |
| 2026-05-05 21:15 | 55.19409 | -3.12710 | 19152 ft | 347 kts | 334° |
| 2026-05-05 21:15 | 55.21632 | -3.14342 | 18694 ft | 345 kts | 334° |
| 2026-05-05 21:15 | 55.23841 | -3.15965 | 18259 ft | 344 kts | 334° |
| 2026-05-05 21:15 | 55.26047 | -3.17589 | 17748 ft | 343 kts | 334° |
| 2026-05-05 21:16 | 55.28238 | -3.19203 | 17268 ft | 340 kts | 334° |
| 2026-05-05 21:16 | 55.30397 | -3.20794 | 16835 ft | 337 kts | 334° |
| 2026-05-05 21:16 | 55.32551 | -3.22385 | 16380 ft | 335 kts | 334° |
| 2026-05-05 21:16 | 55.34678 | -3.23957 | 15944 ft | 332 kts | 334° |
| 2026-05-05 21:17 | 55.36799 | -3.25528 | 15529 ft | 330 kts | 334° |
| 2026-05-05 21:17 | 55.38913 | -3.27096 | 15096 ft | 329 kts | 335° |
| 2026-05-05 21:17 | 55.41016 | -3.28656 | 14672 ft | 328 kts | 335° |
| 2026-05-05 21:17 | 55.43111 | -3.30214 | 14247 ft | 326 kts | 335° |
| 2026-05-05 21:18 | 55.45194 | -3.31763 | 13814 ft | 325 kts | 335° |
| 2026-05-05 21:18 | 55.47271 | -3.33308 | 13367 ft | 323 kts | 335° |
| 2026-05-05 21:18 | 55.49310 | -3.34828 | 12916 ft | 321 kts | 335° |
| 2026-05-05 21:18 | 55.51270 | -3.36755 | 12487 ft | 317 kts | 322° |
| 2026-05-05 21:19 | 55.52950 | -3.39213 | 12052 ft | 316 kts | 318° |
| 2026-05-05 21:19 | 55.54594 | -3.41797 | 11584 ft | 316 kts | 317° |
| 2026-05-05 21:19 | 55.56215 | -3.44319 | 11157 ft | 314 kts | 318° |
| 2026-05-05 21:19 | 55.57867 | -3.46828 | 10732 ft | 312 kts | 319° |
| 2026-05-05 21:20 | 55.59522 | -3.49288 | 10321 ft | 308 kts | 320° |
| 2026-05-05 21:20 | 55.61140 | -3.51668 | 9918 ft | 297 kts | 320° |
| 2026-05-05 21:20 | 55.62672 | -3.53915 | 9853 ft | 276 kts | 320° |
| 2026-05-05 21:20 | 55.64155 | -3.56094 | 9244 ft | 275 kts | 319° |
| 2026-05-05 21:21 | 55.65583 | -3.58294 | 8807 ft | 270 kts | 318° |
| 2026-05-05 21:21 | 55.66969 | -3.60473 | 8437 ft | 263 kts | 318° |
| 2026-05-05 21:21 | 55.68320 | -3.62598 | 8084 ft | 256 kts | 318° |
| 2026-05-05 21:21 | 55.69645 | -3.64653 | 7744 ft | 250 kts | 320° |
| 2026-05-05 21:22 | 55.70970 | -3.66592 | 7423 ft | 244 kts | 320° |
| 2026-05-05 21:22 | 55.72271 | -3.68483 | 7108 ft | 239 kts | 320° |
| 2026-05-05 21:22 | 55.73543 | -3.70339 | 6809 ft | 234 kts | 320° |
| 2026-05-05 21:22 | 55.74791 | -3.72163 | 6499 ft | 230 kts | 320° |
| 2026-05-05 21:23 | 55.75983 | -3.73989 | 6188 ft | 226 kts | 313° |
| 2026-05-05 21:23 | 55.77051 | -3.75989 | 5874 ft | 222 kts | 321° |
| 2026-05-05 21:23 | 55.78267 | -3.77688 | 5600 ft | 223 kts | 329° |
| 2026-05-05 21:23 | 55.79703 | -3.78386 | 5417 ft | 213 kts | 9° |
| 2026-05-05 21:24 | 55.80617 | -3.77787 | 5324 ft | 215 kts | 36° |
| 2026-05-05 21:24 | 55.81634 | -3.75820 | 5097 ft | 220 kts | 51° |
| 2026-05-05 21:24 | 55.82593 | -3.73674 | 4802 ft | 222 kts | 52° |
| 2026-05-05 21:24 | 55.83475 | -3.71415 | 4490 ft | 222 kts | 57° |
| 2026-05-05 21:25 | 55.84272 | -3.69123 | 4167 ft | 213 kts | 59° |
| 2026-05-05 21:25 | 55.85015 | -3.66910 | 3899 ft | 202 kts | 59° |
| 2026-05-05 21:25 | 55.85717 | -3.64811 | 3605 ft | 193 kts | 59° |
| 2026-05-05 21:25 | 55.86381 | -3.62833 | 3350 ft | 177 kts | 60° |
| 2026-05-05 21:26 | 55.86984 | -3.61038 | 3099 ft | 162 kts | 60° |
| 2026-05-05 21:26 | 55.87537 | -3.59392 | 2903 ft | 148 kts | 61° |
| 2026-05-05 21:26 | 55.88038 | -3.57901 | 2697 ft | 135 kts | 62° |
| 2026-05-05 21:26 | 55.88506 | -3.56508 | 2523 ft | 129 kts | 62° |
| 2026-05-05 21:27 | 55.88963 | -3.55147 | 2347 ft | 127 kts | 62° |
| 2026-05-05 21:27 | 55.89417 | -3.53796 | 2175 ft | 128 kts | 63° |
| 2026-05-05 21:27 | 55.89876 | -3.52429 | 1987 ft | 129 kts | 62° |
| 2026-05-05 21:27 | 55.90344 | -3.51050 | 1808 ft | 130 kts | 63° |
| 2026-05-05 21:28 | 55.90807 | -3.49663 | 1605 ft | 131 kts | 62° |
| 2026-05-05 21:28 | 55.91273 | -3.48265 | 1432 ft | 132 kts | 62° |
| 2026-05-05 21:28 | 55.91753 | -3.46856 | 1279 ft | 134 kts | 61° |
| 2026-05-05 21:28 | 55.92236 | -3.45425 | 1083 ft | 133 kts | 62° |
| 2026-05-05 21:29 | 55.92715 | -3.44004 | 857 ft | 134 kts | 61° |
| 2026-05-05 21:29 | 55.93198 | -3.42571 | 678 ft | 135 kts | 61° |
| 2026-05-05 21:29 | 55.93680 | -3.41131 | 475 ft | 137 kts | 61° |
| 2026-05-05 21:29 | 55.94182 | -3.39672 | 254 ft | 139 kts | 61° |
| 2026-05-05 21:30 | 55.94672 | -3.38221 | 121 ft | 133 kts | 62° |
| 2026-05-05 21:30 | 55.95071 | -3.37039 | 112 ft | 83 kts | 58° |
| 2026-05-05 21:30 | 55.95236 | -3.36558 | 110 ft | 23 kts | 58° |
| 2026-05-05 21:30 | 55.95251 | -3.36424 | 109 ft | 10 kts | 124° |
| 2026-05-05 21:31 | 55.95198 | -3.36357 | 113 ft | 8 kts | 149° |
| 2026-05-05 21:31 | 55.95167 | -3.36324 | 113 ft | 4 kts | 149° |
| 2026-05-05 21:31 | 55.95148 | -3.36286 | 115 ft | 5 kts | 118° |
| 2026-05-05 21:31 | 55.95133 | -3.36215 | 114 ft | 7 kts | 109° |
| 2026-05-05 21:32 | 55.95115 | -3.36117 | 115 ft | 9 kts | 108° |
| 2026-05-05 21:32 | 55.95096 | -3.36016 | 112 ft | 9 kts | 108° |
| 2026-05-05 21:32 | 55.95069 | -3.35913 | 113 ft | 10 kts | 119° |
| 2026-05-05 21:32 | 55.95040 | -3.35831 | 112 ft | 5 kts | 144° |
| 2026-05-05 21:33 | 55.95008 | -3.35836 | 114 ft | 5 kts | 202° |
| 2026-05-05 21:33 | 55.94968 | -3.35860 | 113 ft | 7 kts | 181° |
| 2026-05-05 21:33 | 55.94924 | -3.35857 | 113 ft | 6 kts | 208° |
| 2026-05-05 21:33 | 55.94908 | -3.35916 | 115 ft | 5 kts | 254° |
| 2026-05-05 21:34 | 55.94898 | -3.35975 | 115 ft | 4 kts | 255° |
| 2026-05-05 21:34 | 55.94895 | -3.35996 | 112 ft | 0 kts | 255° |